createdAt,value
2017-09-03T00:00:27.812Z,11.35
2017-09-03T00:01:27.819Z,11.31
2017-09-03T00:02:27.818Z,11.27
2017-09-03T00:03:27.820Z,11.24
2017-09-03T00:03:59.796Z,11.24
2017-09-03T00:04:27.821Z,11.22
2017-09-03T00:05:27.824Z,11.21
2017-09-03T00:06:27.828Z,11.23
2017-09-03T00:07:27.834Z,11.17
2017-09-03T00:08:27.832Z,11.12
2017-09-03T00:09:27.837Z,11.09
2017-09-03T00:10:27.840Z,11.09
2017-09-03T00:11:27.843Z,11.06
2017-09-03T00:12:27.845Z,11.05
2017-09-03T00:13:27.846Z,11.05
2017-09-03T00:14:27.852Z,11.04
2017-09-03T00:15:27.852Z,11.01
2017-09-03T00:16:27.855Z,10.99
2017-09-03T00:17:27.858Z,10.98
2017-09-03T00:18:27.862Z,10.96
2017-09-03T00:19:27.866Z,10.95
2017-09-03T00:20:27.873Z,10.96
2017-09-03T00:21:27.879Z,10.91
2017-09-03T00:22:27.885Z,10.91
2017-09-03T00:23:27.876Z,10.88
2017-09-03T00:24:27.883Z,10.82
2017-09-03T00:25:27.886Z,10.76
2017-09-03T00:26:27.884Z,10.73
2017-09-03T00:27:27.888Z,10.71
2017-09-03T00:28:27.891Z,10.67
2017-09-03T00:29:27.894Z,10.67
2017-09-03T00:30:27.902Z,10.65
2017-09-03T00:31:27.898Z,10.60
2017-09-03T00:32:27.900Z,10.59
2017-09-03T00:33:27.904Z,10.57
2017-09-03T00:34:27.912Z,10.61
2017-09-03T00:35:27.910Z,10.66
2017-09-03T00:36:27.912Z,10.68
2017-09-03T00:37:27.916Z,10.69
2017-09-03T00:38:27.918Z,10.69
2017-09-03T00:39:27.921Z,10.68
2017-09-03T00:40:27.923Z,10.73
2017-09-03T00:41:27.926Z,10.71
2017-09-03T00:42:27.930Z,10.73
2017-09-03T00:43:27.930Z,10.73
2017-09-03T00:44:27.935Z,10.71
2017-09-03T00:45:27.939Z,10.70
2017-09-03T00:46:27.940Z,10.69
2017-09-03T00:47:27.946Z,10.70
2017-09-03T00:48:27.956Z,10.65
2017-09-03T00:49:27.960Z,10.67
2017-09-03T00:50:27.954Z,10.65
2017-09-03T00:51:27.955Z,10.64
2017-09-03T00:52:27.960Z,10.60
2017-09-03T00:53:27.962Z,10.59
2017-09-03T00:54:27.965Z,10.61
2017-09-03T00:55:27.970Z,10.54
2017-09-03T00:56:27.972Z,10.53
2017-09-03T00:57:27.973Z,10.58
2017-09-03T00:58:27.976Z,10.63
2017-09-03T00:59:27.982Z,10.64
2017-09-03T01:02:43.203Z,10.65
2017-09-03T01:02:44.548Z,10.67
2017-09-03T01:02:45.354Z,10.63
2017-09-03T01:05:53.952Z,10.64
2017-09-03T01:05:55.597Z,10.61
2017-09-03T01:05:56.211Z,10.59
2017-09-03T01:08:47.187Z,10.57
2017-09-03T01:08:48.921Z,10.59
2017-09-03T01:08:49.734Z,10.57
2017-09-03T01:11:49.824Z,10.61
2017-09-03T01:11:51.148Z,10.64
2017-09-03T01:11:51.961Z,10.67
2017-09-03T01:14:32.086Z,10.70
2017-09-03T01:14:33.352Z,10.70
2017-09-03T01:14:34.158Z,10.64
2017-09-03T01:17:54.962Z,10.59
2017-09-03T01:17:56.242Z,10.53
2017-09-03T01:17:57.062Z,10.48
2017-09-03T01:21:08.195Z,10.45
2017-09-03T01:21:09.468Z,10.44
2017-09-03T01:21:10.276Z,10.39
2017-09-03T01:23:54.867Z,10.36
2017-09-03T01:23:56.560Z,10.35
2017-09-03T01:23:57.366Z,10.35
2017-09-03T01:26:32.213Z,10.36
2017-09-03T01:26:33.927Z,10.40
2017-09-03T01:26:34.756Z,10.37
2017-09-03T01:29:54.904Z,10.38
2017-09-03T01:29:56.122Z,10.36
2017-09-03T01:29:56.928Z,10.32
2017-09-03T01:32:42.197Z,10.34
2017-09-03T01:32:43.269Z,10.36
2017-09-03T01:32:43.870Z,10.36
2017-09-03T01:35:54.867Z,10.32
2017-09-03T01:35:56.508Z,10.28
2017-09-03T01:35:57.332Z,10.27
2017-09-03T01:38:31.920Z,10.27
2017-09-03T01:38:33.591Z,10.28
2017-09-03T01:38:34.194Z,10.28
2017-09-03T01:44:11.867Z,10.28
2017-09-03T01:44:13.086Z,10.27
2017-09-03T01:44:13.796Z,10.33
2017-09-03T01:44:14.820Z,10.29
2017-09-03T01:44:15.535Z,10.29
2017-09-03T01:44:28.107Z,10.30
2017-09-03T01:47:49.919Z,10.33
2017-09-03T01:47:51.209Z,10.35
2017-09-03T01:47:52.022Z,10.37
2017-09-03T01:51:08.134Z,10.41
2017-09-03T01:51:09.377Z,10.43
2017-09-03T01:51:10.080Z,10.45
2017-09-03T01:53:54.891Z,10.48
2017-09-03T01:53:56.611Z,10.47
2017-09-03T01:53:57.418Z,10.48
2017-09-03T01:57:08.151Z,10.43
2017-09-03T01:57:09.888Z,10.43
2017-09-03T01:57:10.491Z,10.38
2017-09-03T01:59:55.842Z,10.37
2017-09-03T01:59:57.111Z,10.34
2017-09-03T01:59:58.018Z,10.30
2017-09-03T02:00:28.156Z,10.27
2017-09-03T02:01:28.156Z,10.16
2017-09-03T02:02:28.164Z,10.13
2017-09-03T02:03:28.164Z,10.15
2017-09-03T02:04:28.166Z,10.15
2017-09-03T02:05:28.165Z,10.14
2017-09-03T02:06:28.174Z,10.09
2017-09-03T02:07:28.174Z,10.09
2017-09-03T02:08:28.176Z,10.10
2017-09-03T02:09:28.184Z,10.09
2017-09-03T02:10:28.183Z,10.10
2017-09-03T02:11:28.189Z,10.11
2017-09-03T02:12:28.191Z,10.17
2017-09-03T02:13:28.191Z,10.21
2017-09-03T02:14:28.195Z,10.23
2017-09-03T02:15:28.200Z,10.26
2017-09-03T02:16:28.205Z,10.27
2017-09-03T02:17:28.202Z,10.28
2017-09-03T02:18:28.207Z,10.33
2017-09-03T02:19:28.216Z,10.35
2017-09-03T02:20:28.214Z,10.34
2017-09-03T02:21:28.217Z,10.31
2017-09-03T02:22:28.220Z,10.28
2017-09-03T02:23:28.234Z,10.26
2017-09-03T02:24:28.228Z,10.22
2017-09-03T02:25:28.237Z,10.15
2017-09-03T02:26:28.228Z,10.10
2017-09-03T02:27:28.229Z,10.14
2017-09-03T02:28:28.236Z,10.11
2017-09-03T02:29:28.242Z,10.07
2017-09-03T02:30:28.242Z,10.04
2017-09-03T02:31:28.244Z,10.04
2017-09-03T02:32:28.246Z,10.04
2017-09-03T02:33:28.252Z,10.07
2017-09-03T02:34:28.251Z,10.06
2017-09-03T02:35:28.254Z,10.08
2017-09-03T02:36:28.258Z,10.11
2017-09-03T02:37:28.262Z,10.16
2017-09-03T02:38:28.267Z,10.18
2017-09-03T02:39:28.268Z,10.16
2017-09-03T02:40:28.268Z,10.17
2017-09-03T02:41:28.274Z,10.16
2017-09-03T02:42:28.282Z,10.17
2017-09-03T02:43:28.279Z,10.16
2017-09-03T02:44:28.281Z,10.13
2017-09-03T02:45:28.284Z,10.16
2017-09-03T02:46:28.286Z,10.14
2017-09-03T02:47:28.290Z,10.09
2017-09-03T02:48:28.301Z,10.03
2017-09-03T02:49:28.297Z,10.05
2017-09-03T02:50:28.300Z,10.09
2017-09-03T02:51:28.301Z,10.09
2017-09-03T02:52:28.305Z,10.08
2017-09-03T02:53:28.307Z,10.07
2017-09-03T02:54:28.312Z,10.08
2017-09-03T02:55:28.315Z,10.07
2017-09-03T02:56:28.313Z,10.04
2017-09-03T02:57:28.320Z,10.03
2017-09-03T02:58:28.323Z,10.04
2017-09-03T02:59:28.328Z,10.00
2017-09-03T03:00:28.326Z,9.99
2017-09-03T03:01:28.331Z,10.01
2017-09-03T03:02:28.335Z,10.02
2017-09-03T03:03:28.334Z,10.04
2017-09-03T03:04:28.340Z,10.05
2017-09-03T03:05:28.342Z,10.02
2017-09-03T03:06:28.345Z,9.99
2017-09-03T03:07:28.347Z,9.97
2017-09-03T03:08:28.350Z,9.96
2017-09-03T03:09:28.353Z,9.96
2017-09-03T03:10:28.355Z,10.00
2017-09-03T03:11:28.362Z,10.01
2017-09-03T03:12:28.368Z,10.00
2017-09-03T03:13:28.393Z,10.02
2017-09-03T03:14:28.364Z,10.02
2017-09-03T03:15:28.373Z,9.98
2017-09-03T03:16:28.372Z,9.97
2017-09-03T03:17:28.376Z,10.02
2017-09-03T03:18:28.378Z,10.04
2017-09-03T03:19:28.383Z,10.05
2017-09-03T03:20:28.384Z,10.02
2017-09-03T03:21:28.387Z,10.03
2017-09-03T03:22:28.389Z,10.00
2017-09-03T03:23:28.392Z,10.02
2017-09-03T03:24:28.396Z,10.05
2017-09-03T03:25:28.400Z,10.04
2017-09-03T03:26:28.399Z,10.05
2017-09-03T03:27:28.407Z,10.08
2017-09-03T03:28:28.406Z,10.10
2017-09-03T03:29:28.408Z,10.11
2017-09-03T03:30:28.413Z,10.11
2017-09-03T03:31:28.417Z,10.16
2017-09-03T03:32:28.418Z,10.17
2017-09-03T03:33:28.423Z,10.15
2017-09-03T03:34:28.424Z,10.13
2017-09-03T03:35:04.505Z,10.13
2017-09-03T03:36:59.917Z,10.11
2017-09-03T03:37:01.216Z,10.06
2017-09-03T03:37:28.434Z,10.01
2017-09-03T03:38:28.436Z,9.92
2017-09-03T03:39:28.443Z,9.90
2017-09-03T03:40:28.442Z,9.90
2017-09-03T03:41:28.447Z,9.88
2017-09-03T03:42:28.451Z,9.84
2017-09-03T03:43:28.451Z,9.82
2017-09-03T03:44:28.452Z,9.87
2017-09-03T03:45:28.462Z,9.85
2017-09-03T03:46:28.461Z,9.84
2017-09-03T03:47:28.464Z,9.81
2017-09-03T03:48:28.466Z,9.78
2017-09-03T03:49:28.470Z,9.75
2017-09-03T03:50:28.472Z,9.74
2017-09-03T03:51:28.479Z,9.78
2017-09-03T03:52:28.480Z,9.78
2017-09-03T03:53:28.481Z,9.78
2017-09-03T03:54:28.484Z,9.77
2017-09-03T03:55:28.489Z,9.75
2017-09-03T03:56:28.490Z,9.76
2017-09-03T03:57:28.492Z,9.75
2017-09-03T03:58:28.500Z,9.72
2017-09-03T03:59:28.499Z,9.71
2017-09-03T04:00:28.529Z,9.67
2017-09-03T04:01:28.505Z,9.65
2017-09-03T04:02:28.505Z,9.66
2017-09-03T04:03:28.509Z,9.70
2017-09-03T04:04:28.513Z,9.74
2017-09-03T04:05:28.517Z,9.77
2017-09-03T04:06:28.517Z,9.78
2017-09-03T04:07:28.519Z,9.79
2017-09-03T04:08:28.522Z,9.75
2017-09-03T04:09:28.525Z,9.77
2017-09-03T04:10:28.529Z,9.76
2017-09-03T04:11:28.533Z,9.77
2017-09-03T04:12:28.534Z,9.76
2017-09-03T04:13:28.538Z,9.75
2017-09-03T04:14:28.539Z,9.76
2017-09-03T04:15:28.547Z,9.81
2017-09-03T04:16:28.551Z,9.81
2017-09-03T04:17:28.551Z,9.84
2017-09-03T04:18:28.552Z,9.87
2017-09-03T04:19:28.555Z,9.87
2017-09-03T04:20:28.557Z,9.87
2017-09-03T04:21:28.560Z,9.81
2017-09-03T04:22:28.564Z,9.83
2017-09-03T04:23:28.564Z,9.78
2017-09-03T04:24:28.566Z,9.75
2017-09-03T04:25:28.573Z,9.73
2017-09-03T04:26:28.573Z,9.72
2017-09-03T04:27:28.580Z,9.71
2017-09-03T04:28:28.579Z,9.70
2017-09-03T04:29:28.581Z,9.65
2017-09-03T04:30:28.588Z,9.62
2017-09-03T04:31:28.588Z,9.58
2017-09-03T04:32:28.592Z,9.53
2017-09-03T04:33:28.595Z,9.46
2017-09-03T04:34:28.596Z,9.42
2017-09-03T04:35:28.599Z,9.37
2017-09-03T04:36:28.602Z,9.37
2017-09-03T04:37:28.606Z,9.34
2017-09-03T04:38:28.608Z,9.32
2017-09-03T04:39:28.612Z,9.31
2017-09-03T04:40:28.612Z,9.30
2017-09-03T04:41:28.616Z,9.29
2017-09-03T04:42:28.624Z,9.32
2017-09-03T04:43:28.622Z,9.34
2017-09-03T04:44:28.627Z,9.34
2017-09-03T04:45:28.634Z,9.35
2017-09-03T04:46:28.631Z,9.32
2017-09-03T04:47:28.635Z,9.29
2017-09-03T04:48:28.637Z,9.21
2017-09-03T04:49:28.640Z,9.18
2017-09-03T04:50:28.644Z,9.22
2017-09-03T04:51:28.643Z,9.21
2017-09-03T04:52:28.646Z,9.21
2017-09-03T04:53:28.650Z,9.26
2017-09-03T04:54:28.658Z,9.29
2017-09-03T04:55:28.661Z,9.29
2017-09-03T04:56:28.661Z,9.27
2017-09-03T04:57:28.665Z,9.23
2017-09-03T04:58:28.665Z,9.18
2017-09-03T04:59:28.670Z,9.14
2017-09-03T05:00:28.671Z,9.09
2017-09-03T05:01:28.676Z,9.06
2017-09-03T05:02:28.678Z,9.07
2017-09-03T05:03:28.684Z,9.07
2017-09-03T05:04:28.683Z,9.07
2017-09-03T05:05:28.689Z,9.11
2017-09-03T05:06:28.688Z,9.11
2017-09-03T05:07:28.692Z,9.14
2017-09-03T05:08:28.695Z,9.19
2017-09-03T05:09:28.697Z,9.20
2017-09-03T05:10:28.699Z,9.25
2017-09-03T05:11:28.700Z,9.26
2017-09-03T05:12:28.704Z,9.34
2017-09-03T05:13:28.710Z,9.42
2017-09-03T05:14:28.713Z,9.45
2017-09-03T05:15:28.717Z,9.45
2017-09-03T05:16:28.720Z,9.53
2017-09-03T05:17:28.721Z,9.57
2017-09-03T05:18:28.723Z,9.59
2017-09-03T05:19:28.730Z,9.63
2017-09-03T05:20:28.731Z,9.66
2017-09-03T05:21:28.732Z,9.73
2017-09-03T05:22:28.732Z,9.79
2017-09-03T05:23:28.739Z,9.83
2017-09-03T05:24:28.748Z,9.83
2017-09-03T05:25:28.743Z,9.79
2017-09-03T05:26:28.747Z,9.77
2017-09-03T05:27:28.749Z,9.77
2017-09-03T05:28:28.752Z,9.78
2017-09-03T05:29:28.757Z,9.79
2017-09-03T05:30:28.756Z,9.79
2017-09-03T05:31:28.761Z,9.77
2017-09-03T05:32:28.765Z,9.79
2017-09-03T05:33:28.773Z,9.80
2017-09-03T05:34:28.768Z,9.78
2017-09-03T05:35:28.772Z,9.77
2017-09-03T05:36:28.775Z,9.75
2017-09-03T05:37:28.776Z,9.77
2017-09-03T05:38:28.781Z,9.79
2017-09-03T05:39:28.784Z,9.87
2017-09-03T05:40:28.785Z,9.90
2017-09-03T05:41:28.785Z,9.95
2017-09-03T05:42:28.788Z,9.96
2017-09-03T05:43:28.791Z,10.03
2017-09-03T05:44:28.798Z,10.07
2017-09-03T05:45:28.802Z,10.15
2017-09-03T05:46:28.803Z,10.21
2017-09-03T05:47:28.805Z,10.27
2017-09-03T05:48:28.810Z,10.32
2017-09-03T05:49:28.818Z,10.31
2017-09-03T05:50:28.821Z,10.36
2017-09-03T05:51:28.815Z,10.40
2017-09-03T05:52:28.820Z,10.44
2017-09-03T05:53:29.167Z,10.53
2017-09-03T05:54:28.826Z,10.54
2017-09-03T05:55:28.829Z,10.58
2017-09-03T05:56:28.832Z,10.58
2017-09-03T05:57:28.833Z,10.61
2017-09-03T05:58:28.840Z,10.62
2017-09-03T05:59:28.846Z,10.65
2017-09-03T06:00:28.846Z,10.67
2017-09-03T06:01:28.843Z,10.69
2017-09-03T06:02:28.850Z,10.69
2017-09-03T06:03:28.855Z,10.75
2017-09-03T06:04:28.855Z,10.77
2017-09-03T06:05:28.856Z,10.80
2017-09-03T06:06:28.858Z,10.77
2017-09-03T06:07:28.863Z,10.71
2017-09-03T06:08:28.869Z,10.63
2017-09-03T06:09:28.867Z,10.61
2017-09-03T06:10:28.871Z,10.63
2017-09-03T06:11:28.874Z,10.68
2017-09-03T06:12:28.877Z,10.69
2017-09-03T06:13:28.884Z,10.65
2017-09-03T06:14:28.889Z,10.65
2017-09-03T06:15:28.943Z,10.66
2017-09-03T06:16:29.189Z,10.71
2017-09-03T06:17:28.897Z,10.73
2017-09-03T06:18:28.896Z,10.76
2017-09-03T06:19:28.901Z,10.78
2017-09-03T06:20:28.899Z,10.76
2017-09-03T06:21:28.912Z,10.81
2017-09-03T06:22:28.918Z,10.87
2017-09-03T06:23:29.245Z,10.96
2017-09-03T06:24:28.943Z,10.97
2017-09-03T06:25:28.927Z,10.92
2017-09-03T06:26:29.447Z,10.95
2017-09-03T06:27:28.919Z,10.98
2017-09-03T06:28:28.922Z,11.08
2017-09-03T06:29:28.933Z,11.11
2017-09-03T06:30:29.997Z,11.13
2017-09-03T06:31:28.934Z,11.20
2017-09-03T06:32:28.935Z,11.19
2017-09-03T06:33:28.940Z,11.18
2017-09-03T06:34:28.941Z,11.14
2017-09-03T06:35:28.945Z,11.13
2017-09-03T06:36:28.942Z,11.12
2017-09-03T06:37:28.950Z,11.11
2017-09-03T06:38:28.952Z,11.06
2017-09-03T06:39:28.954Z,11.05
2017-09-03T06:40:28.958Z,11.10
2017-09-03T06:41:28.958Z,11.17
2017-09-03T06:42:28.966Z,11.19
2017-09-03T06:43:28.966Z,11.20
2017-09-03T06:44:28.970Z,11.27
2017-09-03T06:45:28.976Z,11.34
2017-09-03T06:46:28.979Z,11.41
2017-09-03T06:47:28.985Z,11.40
2017-09-03T06:48:28.983Z,11.47
2017-09-03T06:49:28.986Z,11.52
2017-09-03T06:50:28.987Z,11.52
2017-09-03T06:51:28.988Z,11.49
2017-09-03T06:52:28.993Z,11.47
2017-09-03T06:53:28.997Z,11.43
2017-09-03T06:54:29.007Z,11.48
2017-09-03T06:55:29.001Z,11.52
2017-09-03T06:56:29.005Z,11.59
2017-09-03T06:57:29.009Z,11.63
2017-09-03T06:58:29.011Z,11.73
2017-09-03T06:59:29.011Z,11.80
2017-09-03T07:00:29.064Z,11.83
2017-09-03T07:01:29.031Z,11.95
2017-09-03T07:02:29.027Z,12.09
2017-09-03T07:03:29.027Z,12.14
2017-09-03T07:04:29.028Z,12.14
2017-09-03T07:05:29.029Z,12.18
2017-09-03T07:06:29.031Z,12.11
2017-09-03T07:07:29.037Z,12.11
2017-09-03T07:08:29.041Z,12.11
2017-09-03T07:09:29.042Z,12.16
2017-09-03T07:10:29.044Z,12.13
2017-09-03T07:11:29.059Z,12.20
2017-09-03T07:12:29.048Z,12.19
2017-09-03T07:13:29.061Z,12.26
2017-09-03T07:14:29.054Z,12.41
2017-09-03T07:15:29.060Z,12.60
2017-09-03T07:16:29.062Z,12.72
2017-09-03T07:17:29.064Z,12.79
2017-09-03T07:18:29.065Z,12.83
2017-09-03T07:19:29.143Z,12.93
2017-09-03T07:20:29.077Z,13.08
2017-09-03T07:21:29.077Z,13.21
2017-09-03T07:22:29.081Z,13.37
2017-09-03T07:23:29.081Z,13.52
2017-09-03T07:24:29.085Z,13.62
2017-09-03T07:25:29.088Z,13.71
2017-09-03T07:26:29.087Z,13.72
2017-09-03T07:27:29.092Z,13.82
2017-09-03T07:28:29.099Z,13.80
2017-09-03T07:29:29.098Z,13.80
2017-09-03T07:30:29.109Z,13.73
2017-09-03T07:31:29.113Z,13.82
2017-09-03T07:32:29.105Z,13.91
2017-09-03T07:33:29.113Z,13.87
2017-09-03T07:34:29.110Z,13.91
2017-09-03T07:35:29.116Z,14.01
2017-09-03T07:36:29.122Z,14.14
2017-09-03T07:37:29.121Z,14.21
2017-09-03T07:38:29.124Z,14.23
2017-09-03T07:39:29.128Z,14.29
2017-09-03T07:40:29.207Z,14.36
2017-09-03T07:41:29.134Z,14.49
2017-09-03T07:42:29.138Z,14.51
2017-09-03T07:43:29.139Z,14.57
2017-09-03T07:44:29.140Z,14.62
2017-09-03T07:45:29.143Z,14.64
2017-09-03T07:46:29.149Z,14.59
2017-09-03T07:47:29.149Z,14.64
2017-09-03T07:48:29.152Z,14.66
2017-09-03T07:49:29.155Z,14.78
2017-09-03T07:50:29.158Z,14.98
2017-09-03T07:51:29.162Z,15.17
2017-09-03T07:52:29.168Z,15.30
2017-09-03T07:53:29.172Z,15.49
2017-09-03T07:54:29.185Z,15.40
2017-09-03T07:55:29.193Z,15.35
2017-09-03T07:56:29.176Z,15.33
2017-09-03T07:57:29.181Z,15.36
2017-09-03T07:58:29.183Z,15.37
2017-09-03T07:59:29.202Z,15.32
2017-09-03T08:00:29.190Z,15.27
2017-09-03T08:01:29.208Z,15.25
2017-09-03T08:02:29.207Z,15.24
2017-09-03T08:03:29.197Z,15.38
2017-09-03T08:04:29.200Z,15.49
2017-09-03T08:05:29.217Z,15.62
2017-09-03T08:06:29.493Z,15.85
2017-09-03T08:07:29.210Z,16.02
2017-09-03T08:08:29.212Z,16.06
2017-09-03T08:09:29.214Z,16.09
2017-09-03T08:10:29.218Z,16.11
2017-09-03T08:11:29.223Z,16.09
2017-09-03T08:12:29.223Z,16.12
2017-09-03T08:13:29.227Z,16.21
2017-09-03T08:14:29.225Z,16.28
2017-09-03T08:15:29.232Z,16.34
2017-09-03T08:16:29.248Z,16.46
2017-09-03T08:17:29.236Z,16.57
2017-09-03T08:18:29.241Z,16.68
2017-09-03T08:19:29.246Z,16.75
2017-09-03T08:20:29.247Z,16.87
2017-09-03T08:21:29.251Z,16.98
2017-09-03T08:22:29.256Z,17.09
2017-09-03T08:23:29.253Z,17.22
2017-09-03T08:24:29.256Z,17.23
2017-09-03T08:25:29.261Z,17.30
2017-09-03T08:26:29.263Z,17.31
2017-09-03T08:27:29.266Z,17.36
2017-09-03T08:28:29.269Z,17.44
2017-09-03T08:29:29.270Z,17.60
2017-09-03T08:30:29.286Z,17.69
2017-09-03T08:31:29.280Z,17.80
2017-09-03T08:32:29.280Z,17.86
2017-09-03T08:33:29.286Z,17.92
2017-09-03T08:34:29.288Z,17.96
2017-09-03T08:35:29.291Z,18.11
2017-09-03T08:36:29.291Z,18.31
2017-09-03T08:37:29.297Z,18.26
2017-09-03T08:38:29.307Z,18.39
2017-09-03T08:39:29.299Z,18.24
2017-09-03T08:40:29.305Z,18.27
2017-09-03T08:41:29.306Z,18.44
2017-09-03T08:42:29.308Z,18.64
2017-09-03T08:43:29.309Z,18.76
2017-09-03T08:44:29.315Z,18.87
2017-09-03T08:45:29.325Z,19.03
2017-09-03T08:46:29.319Z,19.11
2017-09-03T08:47:29.324Z,19.19
2017-09-03T08:48:29.326Z,19.00
2017-09-03T08:49:29.328Z,19.16
2017-09-03T08:50:29.334Z,19.40
2017-09-03T08:51:29.340Z,19.71
2017-09-03T08:52:29.336Z,19.85
2017-09-03T08:53:29.341Z,19.76
2017-09-03T08:54:29.347Z,19.86
2017-09-03T08:55:29.345Z,19.83
2017-09-03T08:56:29.350Z,19.74
2017-09-03T08:57:29.351Z,19.70
2017-09-03T08:58:29.353Z,19.60
2017-09-03T08:59:29.355Z,19.50
2017-09-03T09:00:29.362Z,19.29
2017-09-03T09:01:29.361Z,19.43
2017-09-03T09:02:29.368Z,19.75
2017-09-03T09:03:29.370Z,19.90
2017-09-03T09:04:29.380Z,20.00
2017-09-03T09:05:29.376Z,20.09
2017-09-03T09:06:29.378Z,20.35
2017-09-03T09:07:29.384Z,20.46
2017-09-03T09:08:29.388Z,20.72
2017-09-03T09:09:29.389Z,20.52
2017-09-03T09:10:29.391Z,20.52
2017-09-03T09:11:29.394Z,20.62
2017-09-03T09:12:29.399Z,20.65
2017-09-03T09:13:29.398Z,20.81
2017-09-03T09:14:29.401Z,20.93
2017-09-03T09:15:29.409Z,21.17
2017-09-03T09:16:29.406Z,21.35
2017-09-03T09:17:29.408Z,21.33
2017-09-03T09:18:29.415Z,21.42
2017-09-03T09:19:29.417Z,21.72
2017-09-03T09:20:29.429Z,21.94
2017-09-03T09:21:29.437Z,22.05
2017-09-03T09:22:29.431Z,22.36
2017-09-03T09:23:29.426Z,22.82
2017-09-03T09:24:29.430Z,22.80
2017-09-03T09:25:29.430Z,22.25
2017-09-03T09:26:29.434Z,21.93
2017-09-03T09:27:29.442Z,21.68
2017-09-03T09:28:29.450Z,21.80
2017-09-03T09:29:29.443Z,22.06
2017-09-03T09:30:29.448Z,22.27
2017-09-03T09:31:29.452Z,22.04
2017-09-03T09:32:29.456Z,21.45
2017-09-03T09:33:29.460Z,20.93
2017-09-03T09:34:29.460Z,20.23
2017-09-03T09:35:29.462Z,19.75
2017-09-03T09:36:29.465Z,19.47
2017-09-03T09:37:29.466Z,19.19
2017-09-03T09:38:29.466Z,18.92
2017-09-03T09:39:29.469Z,18.63
2017-09-03T09:40:29.478Z,18.41
2017-09-03T09:41:29.482Z,18.18
2017-09-03T09:42:29.483Z,18.06
2017-09-03T09:43:29.483Z,18.00
2017-09-03T09:44:29.503Z,17.92
2017-09-03T09:45:29.520Z,17.86
2017-09-03T09:46:29.537Z,17.69
2017-09-03T09:47:29.538Z,17.58
2017-09-03T09:48:29.506Z,17.46
2017-09-03T09:49:29.498Z,17.40
2017-09-03T09:50:29.506Z,17.34
2017-09-03T09:51:29.507Z,17.30
2017-09-03T09:52:29.512Z,17.27
2017-09-03T09:53:29.514Z,17.23
2017-09-03T09:54:29.516Z,17.25
2017-09-03T09:55:29.519Z,17.27
2017-09-03T09:56:29.521Z,17.39
2017-09-03T09:57:29.523Z,17.58
2017-09-03T09:58:29.544Z,17.66
2017-09-03T09:59:29.529Z,17.69
2017-09-03T10:00:29.538Z,17.73
2017-09-03T10:01:29.535Z,17.73
2017-09-03T10:02:29.537Z,17.69
2017-09-03T10:03:29.541Z,17.56
2017-09-03T10:04:29.544Z,17.57
2017-09-03T10:05:29.546Z,17.48
2017-09-03T10:06:29.552Z,17.49
2017-09-03T10:07:29.557Z,17.63
2017-09-03T10:08:29.555Z,18.10
2017-09-03T10:09:29.559Z,18.07
2017-09-03T10:10:29.560Z,18.08
2017-09-03T10:11:29.568Z,18.78
2017-09-03T10:12:29.566Z,19.51
2017-09-03T10:13:29.577Z,20.28
2017-09-03T10:14:29.571Z,21.08
2017-09-03T10:15:29.576Z,21.71
2017-09-03T10:16:29.580Z,21.68
2017-09-03T10:17:29.585Z,21.94
2017-09-03T10:18:29.586Z,21.96
2017-09-03T10:19:29.590Z,21.40
2017-09-03T10:20:29.589Z,20.77
2017-09-03T10:21:29.590Z,20.24
2017-09-03T10:22:29.607Z,19.94
2017-09-03T10:23:29.598Z,19.68
2017-09-03T10:24:29.607Z,19.29
2017-09-03T10:25:29.612Z,19.03
2017-09-03T10:26:29.607Z,18.78
2017-09-03T10:27:29.618Z,18.56
2017-09-03T10:28:29.612Z,18.37
2017-09-03T10:29:29.616Z,18.20
2017-09-03T10:30:29.680Z,18.14
2017-09-03T10:31:29.624Z,18.15
2017-09-03T10:32:29.625Z,18.35
2017-09-03T10:33:29.625Z,18.26
2017-09-03T10:34:29.670Z,18.21
2017-09-03T10:35:29.632Z,18.11
2017-09-03T10:36:29.638Z,17.91
2017-09-03T10:37:29.645Z,17.78
2017-09-03T10:38:29.642Z,17.65
2017-09-03T10:39:29.646Z,17.61
2017-09-03T10:40:29.672Z,17.57
2017-09-03T10:41:29.651Z,17.57
2017-09-03T10:42:29.653Z,18.09
2017-09-03T10:43:29.661Z,18.77
2017-09-03T10:44:29.667Z,19.54
2017-09-03T10:45:29.671Z,20.25
2017-09-03T10:46:29.675Z,20.77
2017-09-03T10:47:29.668Z,21.15
2017-09-03T10:48:29.672Z,21.54
2017-09-03T10:49:29.677Z,21.40
2017-09-03T10:50:29.677Z,20.84
2017-09-03T10:51:29.677Z,20.67
2017-09-03T10:52:29.688Z,20.55
2017-09-03T10:53:29.690Z,21.05
2017-09-03T10:54:29.689Z,21.34
2017-09-03T10:55:29.692Z,21.74
2017-09-03T10:56:29.695Z,21.88
2017-09-03T10:57:29.695Z,22.23
2017-09-03T10:58:29.696Z,21.87
2017-09-03T10:59:29.703Z,21.94
2017-09-03T11:00:29.705Z,22.08
2017-09-03T11:01:29.796Z,21.94
2017-09-03T11:02:29.716Z,22.00
2017-09-03T11:03:29.713Z,22.19
2017-09-03T11:04:29.717Z,22.10
2017-09-03T11:05:29.720Z,21.90
2017-09-03T11:06:29.726Z,21.68
2017-09-03T11:07:29.734Z,21.45
2017-09-03T11:08:29.757Z,21.59
2017-09-03T11:09:29.731Z,21.67
2017-09-03T11:10:29.735Z,21.55
2017-09-03T11:11:29.740Z,21.69
2017-09-03T11:12:29.738Z,21.54
2017-09-03T11:13:29.744Z,21.04
2017-09-03T11:14:29.746Z,20.67
2017-09-03T11:15:29.748Z,20.49
2017-09-03T11:16:29.748Z,20.25
2017-09-03T11:17:29.754Z,19.86
2017-09-03T11:18:29.759Z,19.71
2017-09-03T11:19:29.764Z,19.21
2017-09-03T11:20:29.772Z,18.99
2017-09-03T11:21:29.766Z,18.69
2017-09-03T11:22:29.769Z,18.55
2017-09-03T11:23:29.772Z,18.39
2017-09-03T11:24:29.776Z,18.37
2017-09-03T11:25:29.777Z,18.28
2017-09-03T11:26:29.782Z,18.20
2017-09-03T11:27:29.786Z,18.15
2017-09-03T11:28:29.805Z,18.18
2017-09-03T11:29:29.789Z,18.14
2017-09-03T11:30:29.795Z,18.08
2017-09-03T11:31:29.795Z,18.03
2017-09-03T11:32:29.798Z,18.00
2017-09-03T11:33:29.808Z,17.94
2017-09-03T11:34:29.801Z,17.92
2017-09-03T11:35:29.804Z,17.86
2017-09-03T11:36:29.811Z,17.90
2017-09-03T11:37:29.840Z,17.90
2017-09-03T11:38:29.814Z,17.91
2017-09-03T11:39:29.817Z,17.90
2017-09-03T11:40:29.821Z,17.92
2017-09-03T11:41:29.826Z,17.99
2017-09-03T11:42:29.826Z,18.03
2017-09-03T11:43:29.829Z,18.34
2017-09-03T11:44:29.831Z,18.71
2017-09-03T11:45:29.837Z,19.18
2017-09-03T11:46:29.839Z,19.55
2017-09-03T11:47:29.844Z,19.77
2017-09-03T11:48:29.845Z,20.12
2017-09-03T11:49:29.846Z,20.42
2017-09-03T11:50:29.849Z,20.26
2017-09-03T11:51:29.854Z,20.18
2017-09-03T11:52:29.854Z,19.97
2017-09-03T11:53:29.856Z,19.68
2017-09-03T11:54:29.863Z,19.44
2017-09-03T11:55:29.865Z,19.36
2017-09-03T11:56:29.883Z,19.37
2017-09-03T11:57:29.874Z,19.49
2017-09-03T11:58:29.875Z,19.53
2017-09-03T11:59:29.880Z,19.56
2017-09-03T12:00:29.885Z,19.46
2017-09-03T12:01:29.883Z,19.41
2017-09-03T12:02:29.885Z,19.34
2017-09-03T12:03:29.890Z,19.36
2017-09-03T12:04:29.891Z,19.15
2017-09-03T12:05:29.894Z,19.11
2017-09-03T12:06:29.907Z,18.97
2017-09-03T12:07:29.914Z,18.76
2017-09-03T12:08:29.904Z,18.62
2017-09-03T12:09:29.911Z,18.50
2017-09-03T12:10:29.921Z,18.43
2017-09-03T12:11:29.918Z,18.43
2017-09-03T12:12:29.911Z,18.49
2017-09-03T12:13:29.916Z,18.48
2017-09-03T12:14:29.922Z,18.36
2017-09-03T12:15:29.929Z,18.38
2017-09-03T12:16:29.924Z,18.45
2017-09-03T12:17:29.971Z,18.50
2017-09-03T12:18:29.932Z,18.55
2017-09-03T12:19:29.935Z,18.57
2017-09-03T12:20:29.943Z,18.46
2017-09-03T12:21:29.939Z,18.37
2017-09-03T12:22:29.941Z,18.30
2017-09-03T12:23:29.949Z,18.31
2017-09-03T12:24:29.961Z,18.30
2017-09-03T12:25:29.975Z,18.29
2017-09-03T12:26:29.953Z,18.23
2017-09-03T12:27:29.964Z,18.24
2017-09-03T12:28:29.966Z,18.27
2017-09-03T12:29:29.961Z,18.27
2017-09-03T12:30:29.970Z,18.14
2017-09-03T12:31:29.977Z,18.11
2017-09-03T12:32:29.976Z,18.13
2017-09-03T12:33:29.976Z,18.26
2017-09-03T12:34:29.974Z,18.37
2017-09-03T12:35:29.982Z,18.49
2017-09-03T12:36:29.980Z,18.66
2017-09-03T12:37:29.984Z,18.71
2017-09-03T12:38:30.036Z,18.68
2017-09-03T12:39:29.995Z,18.71
2017-09-03T12:40:29.994Z,18.77
2017-09-03T12:41:29.997Z,18.85
2017-09-03T12:42:30.000Z,18.94
2017-09-03T12:43:30.003Z,19.00
2017-09-03T12:44:30.310Z,19.10
2017-09-03T12:45:30.019Z,19.14
2017-09-03T12:46:30.030Z,19.18
2017-09-03T12:47:30.011Z,19.21
2017-09-03T12:48:30.019Z,19.27
2017-09-03T12:49:30.019Z,19.32
2017-09-03T12:50:30.023Z,19.39
2017-09-03T12:51:30.036Z,19.43
2017-09-03T12:52:30.034Z,19.38
2017-09-03T12:53:30.034Z,19.41
2017-09-03T12:54:30.058Z,19.43